sensor_id;sensor_type;location;lat;lon;timestamp;P1;durP1;ratioP1;P2;durP2;ratioP2
47531;SDS011;33273;52.254;7.988;2022-11-30T00:01:19;20.50;;;10.52;;
47531;SDS011;33273;52.254;7.988;2022-11-30T00:03:46;23.85;;;12.32;;
47531;SDS011;33273;52.254;7.988;2022-11-30T00:08:40;22.83;;;12.15;;
47531;SDS011;33273;52.254;7.988;2022-11-30T00:11:11;20.77;;;12.82;;
47531;SDS011;33273;52.254;7.988;2022-11-30T00:13:46;21.30;;;11.48;;
47531;SDS011;33273;52.254;7.988;2022-11-30T00:18:38;26.83;;;12.88;;
47531;SDS011;33273;52.254;7.988;2022-11-30T00:21:06;26.15;;;12.98;;
47531;SDS011;33273;52.254;7.988;2022-11-30T00:23:35;28.90;;;13.88;;
47531;SDS011;33273;52.254;7.988;2022-11-30T00:26:07;25.77;;;14.50;;
47531;SDS011;33273;52.254;7.988;2022-11-30T00:28:34;25.60;;;13.20;;
47531;SDS011;33273;52.254;7.988;2022-11-30T00:31:03;25.83;;;14.00;;
47531;SDS011;33273;52.254;7.988;2022-11-30T00:33:34;27.70;;;14.27;;
47531;SDS011;33273;52.254;7.988;2022-11-30T00:36:03;26.67;;;13.73;;
47531;SDS011;33273;52.254;7.988;2022-11-30T00:38:35;28.63;;;15.85;;
47531;SDS011;33273;52.254;7.988;2022-11-30T00:41:01;25.95;;;14.27;;
47531;SDS011;33273;52.254;7.988;2022-11-30T00:43:27;26.90;;;13.82;;
47531;SDS011;33273;52.254;7.988;2022-11-30T00:45:55;25.05;;;14.50;;
47531;SDS011;33273;52.254;7.988;2022-11-30T00:48:21;31.15;;;13.73;;
47531;SDS011;33273;52.254;7.988;2022-11-30T00:50:48;28.02;;;15.07;;
47531;SDS011;33273;52.254;7.988;2022-11-30T00:53:15;25.67;;;13.93;;
47531;SDS011;33273;52.254;7.988;2022-11-30T00:55:42;27.80;;;14.23;;
47531;SDS011;33273;52.254;7.988;2022-11-30T00:58:09;32.20;;;15.80;;
47531;SDS011;33273;52.254;7.988;2022-11-30T01:00:36;27.60;;;14.05;;
47531;SDS011;33273;52.254;7.988;2022-11-30T01:03:02;32.20;;;15.63;;
47531;SDS011;33273;52.254;7.988;2022-11-30T01:05:31;28.10;;;15.07;;
47531;SDS011;33273;52.254;7.988;2022-11-30T01:08:01;30.83;;;15.48;;
47531;SDS011;33273;52.254;7.988;2022-11-30T01:10:28;28.00;;;15.45;;
47531;SDS011;33273;52.254;7.988;2022-11-30T01:12:54;33.10;;;16.00;;
47531;SDS011;33273;52.254;7.988;2022-11-30T01:15:21;31.45;;;15.80;;
47531;SDS011;33273;52.254;7.988;2022-11-30T01:17:47;29.38;;;15.50;;
47531;SDS011;33273;52.254;7.988;2022-11-30T01:20:13;30.07;;;15.03;;
47531;SDS011;33273;52.254;7.988;2022-11-30T01:22:38;27.95;;;15.52;;
47531;SDS011;33273;52.254;7.988;2022-11-30T01:25:04;28.20;;;15.83;;
47531;SDS011;33273;52.254;7.988;2022-11-30T01:27:30;31.00;;;14.80;;
47531;SDS011;33273;52.254;7.988;2022-11-30T01:29:56;28.33;;;14.07;;
47531;SDS011;33273;52.254;7.988;2022-11-30T01:32:22;26.23;;;13.95;;
47531;SDS011;33273;52.254;7.988;2022-11-30T01:34:48;26.98;;;14.02;;
47531;SDS011;33273;52.254;7.988;2022-11-30T01:37:14;26.47;;;14.93;;
47531;SDS011;33273;52.254;7.988;2022-11-30T01:39:40;26.93;;;14.50;;
47531;SDS011;33273;52.254;7.988;2022-11-30T01:42:11;25.17;;;14.97;;
47531;SDS011;33273;52.254;7.988;2022-11-30T01:47:32;23.27;;;12.18;;
47531;SDS011;33273;52.254;7.988;2022-11-30T01:50:08;20.50;;;12.55;;
47531;SDS011;33273;52.254;7.988;2022-11-30T01:52:56;22.17;;;11.60;;
47531;SDS011;33273;52.254;7.988;2022-11-30T01:55:31;21.40;;;12.05;;
47531;SDS011;33273;52.254;7.988;2022-11-30T01:58:11;23.17;;;12.15;;
47531;SDS011;33273;52.254;7.988;2022-11-30T02:00:41;22.92;;;11.85;;
47531;SDS011;33273;52.254;7.988;2022-11-30T02:03:14;20.92;;;12.30;;
47531;SDS011;33273;52.254;7.988;2022-11-30T02:05:55;21.85;;;11.80;;
47531;SDS011;33273;52.254;7.988;2022-11-30T02:08:23;25.42;;;11.18;;
47531;SDS011;33273;52.254;7.988;2022-11-30T02:10:54;23.67;;;12.57;;
47531;SDS011;33273;52.254;7.988;2022-11-30T02:30:08;21.23;;;11.80;;
47531;SDS011;33273;52.254;7.988;2022-11-30T02:32:46;21.35;;;10.85;;
47531;SDS011;33273;52.254;7.988;2022-11-30T02:35:18;20.88;;;11.88;;
47531;SDS011;33273;52.254;7.988;2022-11-30T02:37:47;22.20;;;10.50;;
47531;SDS011;33273;52.254;7.988;2022-11-30T02:40:16;21.90;;;10.93;;
47531;SDS011;33273;52.254;7.988;2022-11-30T02:42:43;21.92;;;10.68;;
47531;SDS011;33273;52.254;7.988;2022-11-30T02:45:11;27.33;;;11.98;;
47531;SDS011;33273;52.254;7.988;2022-11-30T02:50:11;27.05;;;12.02;;
47531;SDS011;33273;52.254;7.988;2022-11-30T02:52:41;20.98;;;12.38;;
47531;SDS011;33273;52.254;7.988;2022-11-30T02:55:08;21.75;;;11.93;;
47531;SDS011;33273;52.254;7.988;2022-11-30T02:57:38;26.60;;;13.25;;
47531;SDS011;33273;52.254;7.988;2022-11-30T03:00:05;22.60;;;11.87;;
47531;SDS011;33273;52.254;7.988;2022-11-30T03:02:33;24.92;;;12.68;;
47531;SDS011;33273;52.254;7.988;2022-11-30T03:04:59;23.98;;;12.50;;
47531;SDS011;33273;52.254;7.988;2022-11-30T03:07:24;21.80;;;12.53;;
47531;SDS011;33273;52.254;7.988;2022-11-30T03:09:50;24.43;;;12.60;;
47531;SDS011;33273;52.254;7.988;2022-11-30T03:12:16;24.87;;;12.87;;
47531;SDS011;33273;52.254;7.988;2022-11-30T03:14:42;25.20;;;13.37;;
47531;SDS011;33273;52.254;7.988;2022-11-30T03:17:08;25.08;;;12.52;;
47531;SDS011;33273;52.254;7.988;2022-11-30T03:19:34;26.20;;;12.82;;
47531;SDS011;33273;52.254;7.988;2022-11-30T03:22:00;21.60;;;12.37;;
47531;SDS011;33273;52.254;7.988;2022-11-30T03:24:26;27.33;;;13.23;;
47531;SDS011;33273;52.254;7.988;2022-11-30T03:26:52;35.37;;;14.33;;
47531;SDS011;33273;52.254;7.988;2022-11-30T03:29:18;36.93;;;13.20;;
47531;SDS011;33273;52.254;7.988;2022-11-30T03:31:43;20.75;;;11.18;;
47531;SDS011;33273;52.254;7.988;2022-11-30T03:34:09;22.00;;;11.67;;
47531;SDS011;33273;52.254;7.988;2022-11-30T03:36:35;21.60;;;11.87;;
47531;SDS011;33273;52.254;7.988;2022-11-30T03:39:01;23.50;;;11.63;;
47531;SDS011;33273;52.254;7.988;2022-11-30T03:41:27;26.58;;;12.73;;
47531;SDS011;33273;52.254;7.988;2022-11-30T03:43:53;29.65;;;13.02;;
47531;SDS011;33273;52.254;7.988;2022-11-30T03:46:20;22.52;;;11.85;;
47531;SDS011;33273;52.254;7.988;2022-11-30T03:48:46;22.38;;;12.10;;
47531;SDS011;33273;52.254;7.988;2022-11-30T03:51:12;24.15;;;13.40;;
47531;SDS011;33273;52.254;7.988;2022-11-30T03:53:38;20.70;;;12.00;;
47531;SDS011;33273;52.254;7.988;2022-11-30T03:56:05;19.38;;;11.52;;
47531;SDS011;33273;52.254;7.988;2022-11-30T03:58:34;22.73;;;12.63;;
47531;SDS011;33273;52.254;7.988;2022-11-30T04:01:05;16.65;;;10.30;;
47531;SDS011;33273;52.254;7.988;2022-11-30T04:03:33;18.85;;;10.75;;
47531;SDS011;33273;52.254;7.988;2022-11-30T04:05:59;19.20;;;10.68;;
47531;SDS011;33273;52.254;7.988;2022-11-30T04:08:28;20.05;;;10.13;;
47531;SDS011;33273;52.254;7.988;2022-11-30T04:10:55;19.55;;;10.38;;
47531;SDS011;33273;52.254;7.988;2022-11-30T04:13:24;20.33;;;10.27;;
47531;SDS011;33273;52.254;7.988;2022-11-30T04:15:51;20.75;;;12.15;;
47531;SDS011;33273;52.254;7.988;2022-11-30T04:18:18;20.20;;;10.48;;
47531;SDS011;33273;52.254;7.988;2022-11-30T04:20:45;23.33;;;11.93;;
47531;SDS011;33273;52.254;7.988;2022-11-30T04:23:11;23.13;;;12.05;;
47531;SDS011;33273;52.254;7.988;2022-11-30T04:25:38;20.58;;;10.50;;
47531;SDS011;33273;52.254;7.988;2022-11-30T04:28:05;23.50;;;12.23;;
47531;SDS011;33273;52.254;7.988;2022-11-30T04:30:33;21.80;;;11.32;;
47531;SDS011;33273;52.254;7.988;2022-11-30T04:32:59;22.02;;;12.38;;
47531;SDS011;33273;52.254;7.988;2022-11-30T04:35:25;17.65;;;10.57;;
47531;SDS011;33273;52.254;7.988;2022-11-30T04:37:51;23.35;;;12.00;;
47531;SDS011;33273;52.254;7.988;2022-11-30T04:40:17;18.07;;;10.10;;
47531;SDS011;33273;52.254;7.988;2022-11-30T04:42:43;20.77;;;10.90;;
47531;SDS011;33273;52.254;7.988;2022-11-30T04:45:09;18.88;;;11.13;;
47531;SDS011;33273;52.254;7.988;2022-11-30T04:47:37;23.13;;;11.57;;
47531;SDS011;33273;52.254;7.988;2022-11-30T04:50:04;22.38;;;11.48;;
47531;SDS011;33273;52.254;7.988;2022-11-30T04:52:31;18.38;;;11.27;;
47531;SDS011;33273;52.254;7.988;2022-11-30T04:54:57;19.67;;;10.95;;
47531;SDS011;33273;52.254;7.988;2022-11-30T04:57:23;18.93;;;10.57;;
47531;SDS011;33273;52.254;7.988;2022-11-30T04:59:50;19.95;;;11.35;;
47531;SDS011;33273;52.254;7.988;2022-11-30T05:04:42;17.92;;;9.55;;
47531;SDS011;33273;52.254;7.988;2022-11-30T05:07:08;20.73;;;11.50;;
47531;SDS011;33273;52.254;7.988;2022-11-30T05:09:34;21.67;;;11.95;;
47531;SDS011;33273;52.254;7.988;2022-11-30T05:12:00;21.42;;;11.95;;
47531;SDS011;33273;52.254;7.988;2022-11-30T05:14:26;18.87;;;11.13;;
47531;SDS011;33273;52.254;7.988;2022-11-30T05:16:52;20.33;;;11.23;;
47531;SDS011;33273;52.254;7.988;2022-11-30T05:19:19;20.85;;;10.93;;
47531;SDS011;33273;52.254;7.988;2022-11-30T05:21:45;23.30;;;11.33;;
47531;SDS011;33273;52.254;7.988;2022-11-30T05:24:11;16.93;;;10.87;;
47531;SDS011;33273;52.254;7.988;2022-11-30T05:26:37;20.03;;;11.30;;
47531;SDS011;33273;52.254;7.988;2022-11-30T05:29:03;18.13;;;10.63;;
47531;SDS011;33273;52.254;7.988;2022-11-30T05:31:29;17.27;;;11.27;;
47531;SDS011;33273;52.254;7.988;2022-11-30T05:33:56;23.08;;;11.75;;
47531;SDS011;33273;52.254;7.988;2022-11-30T05:36:21;17.93;;;10.47;;
47531;SDS011;33273;52.254;7.988;2022-11-30T05:38:47;20.07;;;12.83;;
47531;SDS011;33273;52.254;7.988;2022-11-30T05:41:14;17.33;;;10.32;;
47531;SDS011;33273;52.254;7.988;2022-11-30T05:43:41;15.43;;;10.68;;
47531;SDS011;33273;52.254;7.988;2022-11-30T05:46:07;17.00;;;10.37;;
47531;SDS011;33273;52.254;7.988;2022-11-30T05:48:34;18.65;;;10.93;;
47531;SDS011;33273;52.254;7.988;2022-11-30T05:51:08;17.90;;;10.65;;
47531;SDS011;33273;52.254;7.988;2022-11-30T05:53:42;15.85;;;9.73;;
47531;SDS011;33273;52.254;7.988;2022-11-30T05:56:15;16.52;;;9.90;;
47531;SDS011;33273;52.254;7.988;2022-11-30T05:58:43;16.05;;;10.18;;
47531;SDS011;33273;52.254;7.988;2022-11-30T06:01:18;20.15;;;10.80;;
47531;SDS011;33273;52.254;7.988;2022-11-30T06:03:45;16.17;;;10.05;;
47531;SDS011;33273;52.254;7.988;2022-11-30T06:06:11;18.73;;;11.55;;
47531;SDS011;33273;52.254;7.988;2022-11-30T06:08:38;17.98;;;11.25;;
47531;SDS011;33273;52.254;7.988;2022-11-30T06:11:04;17.38;;;9.95;;
47531;SDS011;33273;52.254;7.988;2022-11-30T06:13:31;17.97;;;9.80;;
47531;SDS011;33273;52.254;7.988;2022-11-30T06:15:59;21.52;;;10.85;;
47531;SDS011;33273;52.254;7.988;2022-11-30T06:18:27;15.80;;;10.20;;
47531;SDS011;33273;52.254;7.988;2022-11-30T06:20:53;21.58;;;12.40;;
47531;SDS011;33273;52.254;7.988;2022-11-30T06:23:19;17.80;;;10.70;;
47531;SDS011;33273;52.254;7.988;2022-11-30T06:25:46;19.98;;;10.85;;
47531;SDS011;33273;52.254;7.988;2022-11-30T06:28:11;17.73;;;11.00;;
47531;SDS011;33273;52.254;7.988;2022-11-30T06:30:37;17.80;;;11.00;;
47531;SDS011;33273;52.254;7.988;2022-11-30T06:33:03;20.17;;;11.83;;
47531;SDS011;33273;52.254;7.988;2022-11-30T06:35:29;19.27;;;12.03;;
47531;SDS011;33273;52.254;7.988;2022-11-30T06:37:55;20.83;;;12.10;;
47531;SDS011;33273;52.254;7.988;2022-11-30T06:40:21;20.48;;;12.50;;
47531;SDS011;33273;52.254;7.988;2022-11-30T06:42:47;19.80;;;12.60;;
47531;SDS011;33273;52.254;7.988;2022-11-30T06:45:13;19.50;;;11.23;;
47531;SDS011;33273;52.254;7.988;2022-11-30T06:47:39;20.45;;;12.65;;
47531;SDS011;33273;52.254;7.988;2022-11-30T06:50:05;24.13;;;13.20;;
47531;SDS011;33273;52.254;7.988;2022-11-30T06:52:32;22.38;;;12.80;;
47531;SDS011;33273;52.254;7.988;2022-11-30T06:54:58;21.65;;;13.15;;
47531;SDS011;33273;52.254;7.988;2022-11-30T06:57:25;20.90;;;12.48;;
47531;SDS011;33273;52.254;7.988;2022-11-30T06:59:52;22.00;;;12.32;;
47531;SDS011;33273;52.254;7.988;2022-11-30T07:02:18;22.97;;;13.77;;
47531;SDS011;33273;52.254;7.988;2022-11-30T07:04:44;18.35;;;11.38;;
47531;SDS011;33273;52.254;7.988;2022-11-30T07:07:10;22.63;;;12.70;;
47531;SDS011;33273;52.254;7.988;2022-11-30T07:09:36;21.30;;;12.47;;
47531;SDS011;33273;52.254;7.988;2022-11-30T07:12:02;20.43;;;11.97;;
47531;SDS011;33273;52.254;7.988;2022-11-30T07:14:28;20.20;;;12.65;;
47531;SDS011;33273;52.254;7.988;2022-11-30T07:16:55;22.90;;;13.80;;
47531;SDS011;33273;52.254;7.988;2022-11-30T07:21:48;21.33;;;12.65;;
47531;SDS011;33273;52.254;7.988;2022-11-30T07:24:13;21.47;;;12.57;;
47531;SDS011;33273;52.254;7.988;2022-11-30T07:26:59;23.08;;;13.70;;
47531;SDS011;33273;52.254;7.988;2022-11-30T07:29:26;17.38;;;10.32;;
47531;SDS011;33273;52.254;7.988;2022-11-30T07:31:52;18.10;;;10.50;;
47531;SDS011;33273;52.254;7.988;2022-11-30T07:34:19;20.58;;;11.45;;
47531;SDS011;33273;52.254;7.988;2022-11-30T07:36:45;18.38;;;11.27;;
47531;SDS011;33273;52.254;7.988;2022-11-30T07:39:12;16.75;;;10.48;;
47531;SDS011;33273;52.254;7.988;2022-11-30T07:41:39;17.85;;;11.20;;
47531;SDS011;33273;52.254;7.988;2022-11-30T07:44:08;15.38;;;9.00;;
47531;SDS011;33273;52.254;7.988;2022-11-30T07:46:34;16.15;;;10.32;;
47531;SDS011;33273;52.254;7.988;2022-11-30T07:49:05;14.18;;;9.77;;
47531;SDS011;33273;52.254;7.988;2022-11-30T07:51:33;15.43;;;9.40;;
47531;SDS011;33273;52.254;7.988;2022-11-30T07:54:00;12.77;;;8.38;;
47531;SDS011;33273;52.254;7.988;2022-11-30T07:56:27;13.82;;;8.57;;
47531;SDS011;33273;52.254;7.988;2022-11-30T07:58:57;14.48;;;9.05;;
47531;SDS011;33273;52.254;7.988;2022-11-30T08:01:26;14.80;;;8.85;;
47531;SDS011;33273;52.254;7.988;2022-11-30T08:03:53;13.60;;;9.45;;
47531;SDS011;33273;52.254;7.988;2022-11-30T08:06:20;15.60;;;8.98;;
47531;SDS011;33273;52.254;7.988;2022-11-30T08:08:48;14.25;;;9.00;;
47531;SDS011;33273;52.254;7.988;2022-11-30T08:11:17;13.68;;;9.68;;
47531;SDS011;33273;52.254;7.988;2022-11-30T08:13:45;13.65;;;9.32;;
47531;SDS011;33273;52.254;7.988;2022-11-30T08:16:13;14.15;;;9.63;;
47531;SDS011;33273;52.254;7.988;2022-11-30T08:18:40;17.35;;;10.90;;
47531;SDS011;33273;52.254;7.988;2022-11-30T08:21:07;16.88;;;10.35;;
47531;SDS011;33273;52.254;7.988;2022-11-30T08:23:39;15.48;;;9.65;;
47531;SDS011;33273;52.254;7.988;2022-11-30T08:26:10;14.07;;;9.70;;
47531;SDS011;33273;52.254;7.988;2022-11-30T08:28:41;14.57;;;9.90;;
47531;SDS011;33273;52.254;7.988;2022-11-30T08:31:30;15.73;;;9.38;;
47531;SDS011;33273;52.254;7.988;2022-11-30T08:34:00;17.98;;;11.65;;
47531;SDS011;33273;52.254;7.988;2022-11-30T08:36:32;17.25;;;11.23;;
47531;SDS011;33273;52.254;7.988;2022-11-30T08:38:58;17.48;;;10.50;;
47531;SDS011;33273;52.254;7.988;2022-11-30T08:41:26;18.90;;;12.32;;
47531;SDS011;33273;52.254;7.988;2022-11-30T08:43:53;21.38;;;12.55;;
47531;SDS011;33273;52.254;7.988;2022-11-30T08:46:19;20.85;;;13.00;;
47531;SDS011;33273;52.254;7.988;2022-11-30T08:48:47;21.70;;;13.23;;
47531;SDS011;33273;52.254;7.988;2022-11-30T08:51:14;19.08;;;10.98;;
47531;SDS011;33273;52.254;7.988;2022-11-30T08:53:41;21.83;;;13.13;;
47531;SDS011;33273;52.254;7.988;2022-11-30T08:56:10;23.65;;;13.55;;
47531;SDS011;33273;52.254;7.988;2022-11-30T08:58:39;25.20;;;13.48;;
47531;SDS011;33273;52.254;7.988;2022-11-30T09:03:35;23.45;;;14.68;;
47531;SDS011;33273;52.254;7.988;2022-11-30T09:06:07;27.58;;;14.75;;
47531;SDS011;33273;52.254;7.988;2022-11-30T09:08:37;25.60;;;14.20;;
47531;SDS011;33273;52.254;7.988;2022-11-30T09:11:13;22.10;;;12.93;;
47531;SDS011;33273;52.254;7.988;2022-11-30T09:13:44;23.50;;;12.60;;
47531;SDS011;33273;52.254;7.988;2022-11-30T09:16:11;21.00;;;12.15;;
47531;SDS011;33273;52.254;7.988;2022-11-30T09:18:38;18.42;;;11.98;;
47531;SDS011;33273;52.254;7.988;2022-11-30T09:21:05;23.05;;;12.57;;
47531;SDS011;33273;52.254;7.988;2022-11-30T09:23:36;21.33;;;12.65;;
47531;SDS011;33273;52.254;7.988;2022-11-30T09:28:30;19.38;;;12.30;;
47531;SDS011;33273;52.254;7.988;2022-11-30T09:31:00;18.77;;;11.93;;
47531;SDS011;33273;52.254;7.988;2022-11-30T09:33:33;22.50;;;13.02;;
47531;SDS011;33273;52.254;7.988;2022-11-30T09:36:00;21.52;;;11.98;;
47531;SDS011;33273;52.254;7.988;2022-11-30T09:38:28;20.63;;;12.02;;
47531;SDS011;33273;52.254;7.988;2022-11-30T09:40:55;21.07;;;12.37;;
47531;SDS011;33273;52.254;7.988;2022-11-30T09:46:00;21.45;;;12.23;;
47531;SDS011;33273;52.254;7.988;2022-11-30T09:48:46;20.92;;;11.88;;
47531;SDS011;33273;52.254;7.988;2022-11-30T09:51:16;21.73;;;13.00;;
47531;SDS011;33273;52.254;7.988;2022-11-30T09:53:47;19.67;;;12.32;;
47531;SDS011;33273;52.254;7.988;2022-11-30T09:56:24;20.63;;;12.07;;
47531;SDS011;33273;52.254;7.988;2022-11-30T09:59:06;21.25;;;12.50;;
47531;SDS011;33273;52.254;7.988;2022-11-30T10:01:45;21.02;;;11.50;;
47531;SDS011;33273;52.254;7.988;2022-11-30T10:04:30;19.38;;;11.57;;
47531;SDS011;33273;52.254;7.988;2022-11-30T10:07:12;19.35;;;12.55;;
47531;SDS011;33273;52.254;7.988;2022-11-30T10:26:06;20.48;;;11.70;;
47531;SDS011;33273;52.254;7.988;2022-11-30T10:28:52;20.50;;;11.07;;
47531;SDS011;33273;52.254;7.988;2022-11-30T10:31:30;19.88;;;11.73;;
47531;SDS011;33273;52.254;7.988;2022-11-30T10:34:12;19.92;;;12.32;;
47531;SDS011;33273;52.254;7.988;2022-11-30T10:40:02;19.27;;;12.15;;
47531;SDS011;33273;52.254;7.988;2022-11-30T10:42:21;19.38;;;11.25;;
47531;SDS011;33273;52.254;7.988;2022-11-30T10:45:11;18.80;;;11.57;;
47531;SDS011;33273;52.254;7.988;2022-11-30T10:47:42;16.73;;;11.55;;
47531;SDS011;33273;52.254;7.988;2022-11-30T10:50:13;16.35;;;10.32;;
47531;SDS011;33273;52.254;7.988;2022-11-30T10:52:45;15.15;;;10.02;;
47531;SDS011;33273;52.254;7.988;2022-11-30T10:55:20;17.58;;;11.25;;
47531;SDS011;33273;52.254;7.988;2022-11-30T11:00:35;15.93;;;10.80;;
47531;SDS011;33273;52.254;7.988;2022-11-30T11:03:00;16.00;;;10.80;;
47531;SDS011;33273;52.254;7.988;2022-11-30T11:05:27;16.97;;;12.60;;
47531;SDS011;33273;52.254;7.988;2022-11-30T11:10:35;15.95;;;11.02;;
47531;SDS011;33273;52.254;7.988;2022-11-30T11:13:01;21.55;;;13.57;;
47531;SDS011;33273;52.254;7.988;2022-11-30T11:15:29;18.70;;;12.60;;
47531;SDS011;33273;52.254;7.988;2022-11-30T11:20:46;18.48;;;12.45;;
47531;SDS011;33273;52.254;7.988;2022-11-30T11:23:26;18.95;;;12.10;;
47531;SDS011;33273;52.254;7.988;2022-11-30T11:26:00;16.48;;;11.75;;
47531;SDS011;33273;52.254;7.988;2022-11-30T11:28:26;19.42;;;13.32;;
47531;SDS011;33273;52.254;7.988;2022-11-30T11:30:54;19.38;;;13.05;;
47531;SDS011;33273;52.254;7.988;2022-11-30T11:33:27;18.92;;;12.65;;
47531;SDS011;33273;52.254;7.988;2022-11-30T11:35:55;21.50;;;13.27;;
47531;SDS011;33273;52.254;7.988;2022-11-30T11:38:42;22.45;;;13.23;;
47531;SDS011;33273;52.254;7.988;2022-11-30T11:43:59;24.20;;;13.85;;
47531;SDS011;33273;52.254;7.988;2022-11-30T11:46:33;23.48;;;14.45;;
47531;SDS011;33273;52.254;7.988;2022-11-30T11:49:02;22.35;;;13.85;;
47531;SDS011;33273;52.254;7.988;2022-11-30T11:51:42;27.33;;;14.43;;
47531;SDS011;33273;52.254;7.988;2022-11-30T11:54:21;29.77;;;15.65;;
47531;SDS011;33273;52.254;7.988;2022-11-30T11:57:07;32.92;;;17.52;;
47531;SDS011;33273;52.254;7.988;2022-11-30T11:59:46;30.83;;;16.48;;
47531;SDS011;33273;52.254;7.988;2022-11-30T12:04:53;32.80;;;18.23;;
47531;SDS011;33273;52.254;7.988;2022-11-30T12:07:44;35.13;;;17.83;;
47531;SDS011;33273;52.254;7.988;2022-11-30T12:13:22;39.67;;;20.60;;
47531;SDS011;33273;52.254;7.988;2022-11-30T12:19:12;33.78;;;17.65;;
47531;SDS011;33273;52.254;7.988;2022-11-30T12:26:57;36.53;;;18.95;;
47531;SDS011;33273;52.254;7.988;2022-11-30T12:29:42;38.78;;;20.00;;
47531;SDS011;33273;52.254;7.988;2022-11-30T12:35:26;37.95;;;18.45;;
47531;SDS011;33273;52.254;7.988;2022-11-30T12:41:13;39.10;;;19.35;;
47531;SDS011;33273;52.254;7.988;2022-11-30T12:49:22;38.50;;;19.42;;
47531;SDS011;33273;52.254;7.988;2022-11-30T13:05:38;29.20;;;14.95;;
47531;SDS011;33273;52.254;7.988;2022-11-30T13:11:07;31.05;;;15.55;;
47531;SDS011;33273;52.254;7.988;2022-11-30T13:13:37;28.85;;;14.98;;
47531;SDS011;33273;52.254;7.988;2022-11-30T13:16:12;34.97;;;16.67;;
47531;SDS011;33273;52.254;7.988;2022-11-30T13:18:37;41.47;;;17.97;;
47531;SDS011;33273;52.254;7.988;2022-11-30T13:28:55;37.60;;;18.08;;
47531;SDS011;33273;52.254;7.988;2022-11-30T13:34:35;39.33;;;19.38;;
47531;SDS011;33273;52.254;7.988;2022-11-30T13:39:42;53.67;;;21.27;;
47531;SDS011;33273;52.254;7.988;2022-11-30T13:44:38;59.25;;;24.67;;
47531;SDS011;33273;52.254;7.988;2022-11-30T13:47:16;56.25;;;23.25;;
47531;SDS011;33273;52.254;7.988;2022-11-30T13:50:07;50.15;;;20.95;;
47531;SDS011;33273;52.254;7.988;2022-11-30T13:58:20;51.75;;;23.17;;
47531;SDS011;33273;52.254;7.988;2022-11-30T14:03:26;62.42;;;24.30;;
47531;SDS011;33273;52.254;7.988;2022-11-30T14:09:10;55.58;;;23.33;;
47531;SDS011;33273;52.254;7.988;2022-11-30T14:11:42;56.80;;;22.52;;
47531;SDS011;33273;52.254;7.988;2022-11-30T14:17:13;63.65;;;27.52;;
47531;SDS011;33273;52.254;7.988;2022-11-30T14:19:59;60.15;;;24.13;;
47531;SDS011;33273;52.254;7.988;2022-11-30T14:22:38;58.85;;;23.88;;
47531;SDS011;33273;52.254;7.988;2022-11-30T14:27:37;51.47;;;21.75;;
47531;SDS011;33273;52.254;7.988;2022-11-30T14:30:03;59.78;;;25.48;;
47531;SDS011;33273;52.254;7.988;2022-11-30T14:32:35;60.22;;;22.55;;
47531;SDS011;33273;52.254;7.988;2022-11-30T14:35:16;56.00;;;23.70;;
47531;SDS011;33273;52.254;7.988;2022-11-30T14:40:18;60.58;;;25.55;;
47531;SDS011;33273;52.254;7.988;2022-11-30T14:42:47;67.18;;;25.48;;
47531;SDS011;33273;52.254;7.988;2022-11-30T14:45:31;68.30;;;28.10;;
47531;SDS011;33273;52.254;7.988;2022-11-30T14:48:11;70.10;;;26.38;;
47531;SDS011;33273;52.254;7.988;2022-11-30T14:50:45;68.30;;;27.85;;
47531;SDS011;33273;52.254;7.988;2022-11-30T14:53:33;62.72;;;29.25;;
47531;SDS011;33273;52.254;7.988;2022-11-30T14:58:47;86.95;;;33.00;;
47531;SDS011;33273;52.254;7.988;2022-11-30T15:03:45;83.17;;;31.10;;
47531;SDS011;33273;52.254;7.988;2022-11-30T15:06:14;79.63;;;30.42;;
47531;SDS011;33273;52.254;7.988;2022-11-30T15:08:52;77.78;;;30.23;;
47531;SDS011;33273;52.254;7.988;2022-11-30T15:11:21;77.38;;;30.92;;
47531;SDS011;33273;52.254;7.988;2022-11-30T15:13:52;81.60;;;30.73;;
47531;SDS011;33273;52.254;7.988;2022-11-30T15:18:49;73.05;;;31.17;;
47531;SDS011;33273;52.254;7.988;2022-11-30T15:21:18;78.30;;;30.35;;
47531;SDS011;33273;52.254;7.988;2022-11-30T15:23:49;82.78;;;30.90;;
47531;SDS011;33273;52.254;7.988;2022-11-30T15:26:20;82.88;;;31.70;;
47531;SDS011;33273;52.254;7.988;2022-11-30T15:29:02;74.25;;;29.40;;
47531;SDS011;33273;52.254;7.988;2022-11-30T15:31:52;77.60;;;31.35;;
47531;SDS011;33273;52.254;7.988;2022-11-30T15:34:21;81.65;;;32.92;;
47531;SDS011;33273;52.254;7.988;2022-11-30T15:37:02;73.63;;;28.63;;
47531;SDS011;33273;52.254;7.988;2022-11-30T15:39:28;72.45;;;29.95;;
47531;SDS011;33273;52.254;7.988;2022-11-30T15:41:58;73.25;;;29.55;;
47531;SDS011;33273;52.254;7.988;2022-11-30T15:47:04;77.13;;;32.03;;
47531;SDS011;33273;52.254;7.988;2022-11-30T15:49:33;73.75;;;30.33;;
47531;SDS011;33273;52.254;7.988;2022-11-30T15:57:11;61.50;;;27.80;;
47531;SDS011;33273;52.254;7.988;2022-11-30T15:59:37;64.63;;;27.30;;
47531;SDS011;33273;52.254;7.988;2022-11-30T16:02:04;63.83;;;26.48;;
47531;SDS011;33273;52.254;7.988;2022-11-30T16:07:29;79.82;;;27.25;;
47531;SDS011;33273;52.254;7.988;2022-11-30T16:10:11;70.30;;;27.17;;
47531;SDS011;33273;52.254;7.988;2022-11-30T16:12:44;71.68;;;28.55;;
47531;SDS011;33273;52.254;7.988;2022-11-30T16:15:32;65.63;;;25.80;;
47531;SDS011;33273;52.254;7.988;2022-11-30T16:21:09;66.70;;;26.13;;
47531;SDS011;33273;52.254;7.988;2022-11-30T16:23:35;70.00;;;26.92;;
47531;SDS011;33273;52.254;7.988;2022-11-30T16:26:01;72.83;;;26.70;;
47531;SDS011;33273;52.254;7.988;2022-11-30T16:28:26;67.07;;;25.90;;
47531;SDS011;33273;52.254;7.988;2022-11-30T16:30:52;68.70;;;28.60;;
47531;SDS011;33273;52.254;7.988;2022-11-30T16:33:23;80.55;;;26.40;;
47531;SDS011;33273;52.254;7.988;2022-11-30T16:35:59;83.20;;;29.38;;
47531;SDS011;33273;52.254;7.988;2022-11-30T16:38:27;82.97;;;31.35;;
47531;SDS011;33273;52.254;7.988;2022-11-30T16:40:53;61.92;;;26.08;;
47531;SDS011;33273;52.254;7.988;2022-11-30T16:43:23;66.22;;;26.58;;
47531;SDS011;33273;52.254;7.988;2022-11-30T16:45:51;82.60;;;32.47;;
47531;SDS011;33273;52.254;7.988;2022-11-30T16:48:17;74.67;;;27.47;;
47531;SDS011;33273;52.254;7.988;2022-11-30T16:50:44;87.10;;;29.05;;
47531;SDS011;33273;52.254;7.988;2022-11-30T16:53:13;86.25;;;30.80;;
47531;SDS011;33273;52.254;7.988;2022-11-30T16:55:42;91.18;;;30.63;;
47531;SDS011;33273;52.254;7.988;2022-11-30T16:58:12;74.25;;;29.33;;
47531;SDS011;33273;52.254;7.988;2022-11-30T17:00:38;89.13;;;33.67;;
47531;SDS011;33273;52.254;7.988;2022-11-30T17:05:32;90.55;;;32.17;;
47531;SDS011;33273;52.254;7.988;2022-11-30T17:07:59;82.20;;;34.08;;
47531;SDS011;33273;52.254;7.988;2022-11-30T17:10:25;91.47;;;33.13;;
47531;SDS011;33273;52.254;7.988;2022-11-30T17:12:51;92.97;;;31.87;;
47531;SDS011;33273;52.254;7.988;2022-11-30T17:15:19;94.10;;;32.55;;
47531;SDS011;33273;52.254;7.988;2022-11-30T17:17:47;98.03;;;33.63;;
47531;SDS011;33273;52.254;7.988;2022-11-30T17:20:13;86.15;;;30.70;;
47531;SDS011;33273;52.254;7.988;2022-11-30T17:22:41;86.72;;;32.25;;
47531;SDS011;33273;52.254;7.988;2022-11-30T17:25:12;103.28;;;30.17;;
47531;SDS011;33273;52.254;7.988;2022-11-30T17:27:40;108.20;;;34.72;;
47531;SDS011;33273;52.254;7.988;2022-11-30T17:30:08;90.97;;;31.98;;